Rejestracja

Wszystkie dane podawane są w czasie UTC za wyjątkiem miejsc gdzie jest jednoznacznie podane, że jest inaczej. Dane podawane w serwisie mają charakter informacyjny!!!
Informacje w sprawie dostępu do serwisu pod numerem tel. +48 261-828-138
Informacja dla żołnierzy i pracowników wojska: Prosimy o niezwłoczną zmianę adresu e-mail w profilu użytkownika na pocztę w domenie @ron.mil.pl

Aktualna Pogoda
 
Pogoda w Polsce
17°C Szczecin 16°C Suwałki 18°C Warszawa 18°C Poznan
16°C Opole 17°C Kraków 16°C Rzeszów
Więcej miast w Polsce

Pogoda w Europie
18°C Berlin 15°C Paryz 15°C Bruksela 15°C Oslo
16°C Praga 18°C Zagrzeb
Więcej miast w Europie

Metary wojskowe test
METAR EPBC 170500Z 10002KT CAVOK 19/14 Q1019=
METAR EPCE 170600Z 15004KT 110V180 CAVOK 19/14 Q1018 RMK 192 074 0/0=
METAR EPDA 170600Z VRB03KT CAVOK 20/14 Q1016 RMK 198 070 0/0=
METAR EPDE 170530Z 08006KT CAVOK 17/15 Q1019 RMK 172 086 1/1=
METAR EPIR 170530Z 09004KT CAVOK 17/14 Q1018 RMK 169 084 0/0=
METAR EPKS 170530Z 10006KT CAVOK 18/15 Q1017 RMK 179 082 4/4=
METAR EPLK 170600Z 11004KT 080V150 CAVOK 19/15 Q1018 RMK 191 078 0/0=
METAR EPLY 170530Z VRB02KT CAVOK 17/15 Q1018 RMK 171 090 0/0=
METAR EPMB 170530Z 12004KT CAVOK 17/15 Q1018 RMK 170 088 0/0=
METAR EPMI 170530Z 13006KT CAVOK 17/13 Q1017 RMK 172 078 0/0=
METAR EPMM 170530Z 11006KT CAVOK 18/15 Q1019 RMK 175 085 3/1=
METAR EPNA 170500Z 10004KT CAVOK 16/13 Q1017 RMK 155 087 0/0=
METAR EPOK 170600Z 15007KT CAVOK 19/15 Q1018 RMK 193 078 0/0=
METAR EPPR 170530Z 00000KT CAVOK 16/14 Q1018 RMK 155 089 0/0=
METAR EPPW 170530Z 09006KT CAVOK 18/15 Q1017 RMK 180 080 1/1=
METAR EPSN 170500Z AUTO 13004KT 9999 18/13 Q1016 RMK 183 070 ///=
METAR EPTM 170530Z 12002KT CAVOK 17/15 Q1018 RMK 174 087 0/0=


 
Informacje ogólne
Ptaki - zagrożenia
Pogoda
Warszawa
Temperatura: 17.8°C
Wiatr: 2.0 m/s
Ciśnienie: 1019.0 hPa
Zjawiska: Brak
Temp. max: 18.2 °C
Temp. min: 16.3 °C


Dane astronomiczne
Warszawa:
Dzien: 14:35 h
Noc: 09:25 h


Using HW VSP powered by HW group.

Prawa autorskie©2007 SSH SZ RP. Wszelkie prawa zastrzeżone.